Time;durP1;ratioP1;P1;durP2;ratioP2;P2;SDS_P1;SDS_P2;PMS_P1;PMS_P2;Temp;Humidity;BMP_temperature;BMP_pressure;BME280_temperature;BME280_humidity;BME280_pressure;Samples;Min_cycle;Max_cycle;Signal;HPM_P1;HPM_P2
2022/04/20 00:00:43;;;;;;;6.72;3.90;;;;;;;;;;5023240;28;20049;-81
2022/04/20 00:03:09;;;;;;;5.70;3.95;;;;;;;;;;4998172;28;20504;-81
2022/04/20 00:05:35;;;;;;;7.10;4.20;;;;;;;;;;5017788;28;20045;-81
2022/04/20 00:08:01;;;;;;;5.80;4.00;;;;;;;;;;5018447;28;20041;-81
2022/04/20 00:10:28;;;;;;;5.05;3.88;;;;;;;;;;5017054;28;20049;-81
2022/04/20 00:12:54;;;;;;;6.32;4.10;;;;;;;;;;5016609;28;20041;-81
2022/04/20 00:15:20;;;;;;;8.40;4.10;;;;;;;;;;5014995;28;20053;-81
2022/04/20 00:17:46;;;;;;;7.75;3.65;;;;;;;;;;5000145;28;20401;-82
2022/04/20 00:20:12;;;;;;;6.03;4.00;;;;;;;;;;4997833;28;20095;-81
2022/04/20 00:22:38;;;;;;;8.48;4.10;;;;;;;;;;5007710;28;20454;-81
2022/04/20 00:25:04;;;;;;;5.68;3.22;;;;;;;;;;5023606;28;20088;-81
2022/04/20 00:27:37;;;;;;;5.60;3.60;;;;;;;;;;5022643;28;20053;-82
2022/04/20 00:30:04;;;;;;;5.70;3.72;;;;;;;;;;5017053;28;20041;-81
2022/04/20 00:32:30;;;;;;;6.30;3.58;;;;;;;;;;5000418;28;20061;-81
2022/04/20 00:34:56;;;;;;;4.72;3.53;;;;;;;;;;5002952;28;20388;-82
2022/04/20 00:37:23;;;;;;;5.72;4.15;;;;;;;;;;5022388;28;20042;-82
2022/04/20 00:39:49;;;;;;;4.70;3.58;;;;;;;;;;5022936;28;20429;-81
2022/04/20 00:42:15;;;;;;;5.53;3.30;;;;;;;;;;5022246;28;20087;-81
2022/04/20 00:44:41;;;;;;;9.10;3.75;;;;;;;;;;5010431;28;20038;-82
2022/04/20 00:47:08;;;;;;;4.65;3.45;;;;;;;;;;5011373;28;20041;-82
2022/04/20 00:49:35;;;;;;;6.63;3.60;;;;;;;;;;5011107;28;20049;-82
2022/04/20 00:52:02;;;;;;;4.50;3.70;;;;;;;;;;5024902;28;20088;-82
2022/04/20 00:54:28;;;;;;;5.63;3.47;;;;;;;;;;5011061;28;20080;-82
2022/04/20 00:56:54;;;;;;;3.75;3.33;;;;;;;;;;5008115;28;20473;-82
2022/04/20 00:59:22;;;;;;;4.43;3.50;;;;;;;;;;5008745;28;20060;-82
2022/04/20 01:01:51;;;;;;;4.72;3.55;;;;;;;;;;5023802;28;20490;-82
2022/04/20 01:04:17;;;;;;;4.05;3.40;;;;;;;;;;5009366;28;20049;-83
2022/04/20 01:06:43;;;;;;;4.85;3.70;;;;;;;;;;5025119;28;20050;-82
2022/04/20 01:09:09;;;;;;;4.20;3.50;;;;;;;;;;5008156;28;20045;-81
2022/04/20 01:11:35;;;;;;;5.55;3.75;;;;;;;;;;5012664;28;20132;-82
2022/04/20 01:14:02;;;;;;;4.38;3.70;;;;;;;;;;5027148;28;20121;-82
2022/04/20 01:16:28;;;;;;;5.43;3.33;;;;;;;;;;5006199;28;20065;-81
2022/04/20 01:18:54;;;;;;;4.93;3.20;;;;;;;;;;5023041;28;20044;-83
2022/04/20 01:21:22;;;;;;;4.97;3.60;;;;;;;;;;5011647;28;20045;-82
2022/04/20 01:23:48;;;;;;;4.72;3.63;;;;;;;;;;5023583;28;20037;-82
2022/04/20 01:26:14;;;;;;;4.80;3.75;;;;;;;;;;5013331;28;20452;-82
2022/04/20 01:28:41;;;;;;;4.93;3.45;;;;;;;;;;5020969;28;20042;-82
2022/04/20 01:31:07;;;;;;;5.05;3.33;;;;;;;;;;5026342;28;20048;-82
2022/04/20 01:33:33;;;;;;;4.80;3.63;;;;;;;;;;5013326;28;20041;-82
2022/04/20 01:35:59;;;;;;;4.60;3.70;;;;;;;;;;5024232;28;20124;-82
2022/04/20 01:38:26;;;;;;;4.35;3.65;;;;;;;;;;5004773;28;21719;-82
2022/04/20 01:40:52;;;;;;;5.63;3.65;;;;;;;;;;5028858;28;20099;-82
2022/04/20 01:43:18;;;;;;;4.55;3.58;;;;;;;;;;5024595;28;20498;-82
2022/04/20 01:45:44;;;;;;;4.68;3.63;;;;;;;;;;5024899;28;20057;-82
2022/04/20 01:48:10;;;;;;;5.47;3.55;;;;;;;;;;5024345;28;20042;-82
2022/04/20 01:51:46;;;;;;;3.80;3.50;;;;;;;;;;5024850;28;20500;-82
2022/04/20 01:53:22;;;;;;;4.13;3.70;;;;;;;;;;5021482;28;20046;-82
2022/04/20 01:55:48;;;;;;;4.50;3.72;;;;;;;;;;5026863;28;20062;-82
2022/04/20 01:58:14;;;;;;;3.72;3.22;;;;;;;;;;5002210;28;20052;-82
2022/04/20 02:00:40;;;;;;;4.00;3.50;;;;;;;;;;5038801;28;20077;-82
2022/04/20 02:03:06;;;;;;;4.57;3.50;;;;;;;;;;5007645;28;20056;-82
2022/04/20 02:05:32;;;;;;;5.43;3.42;;;;;;;;;;5007012;28;20057;-82
2022/04/20 02:07:58;;;;;;;4.18;3.78;;;;;;;;;;5007780;28;20061;-82
2022/04/20 02:10:24;;;;;;;3.65;3.35;;;;;;;;;;5023645;28;20045;-84
2022/04/20 02:12:50;;;;;;;3.72;3.40;;;;;;;;;;5028154;28;20045;-82
2022/04/20 02:15:16;;;;;;;4.15;3.80;;;;;;;;;;5021787;28;20091;-82
2022/04/20 02:17:42;;;;;;;5.13;3.70;;;;;;;;;;5007026;28;20100;-82
2022/04/20 02:20:09;;;;;;;3.92;3.53;;;;;;;;;;5006825;28;20087;-82
2022/04/20 02:22:35;;;;;;;5.28;3.63;;;;;;;;;;5007238;28;20053;-81
2022/04/20 02:25:01;;;;;;;4.32;3.92;;;;;;;;;;5025152;28;20179;-82
2022/04/20 02:27:27;;;;;;;4.38;3.95;;;;;;;;;;5008662;28;20053;-83
2022/04/20 02:29:53;;;;;;;4.00;3.47;;;;;;;;;;5026728;28;20066;-83
2022/04/20 02:32:22;;;;;;;4.00;3.60;;;;;;;;;;5008856;28;20053;-82
2022/04/20 02:34:48;;;;;;;5.60;3.60;;;;;;;;;;5006028;28;20092;-82
2022/04/20 02:37:14;;;;;;;3.83;3.42;;;;;;;;;;5007652;28;20081;-82
2022/04/20 02:39:40;;;;;;;3.78;3.42;;;;;;;;;;5022761;28;20072;-83
2022/04/20 02:42:07;;;;;;;3.60;3.22;;;;;;;;;;5022238;28;20049;-82
2022/04/20 02:44:34;;;;;;;6.63;3.70;;;;;;;;;;5009100;28;20271;-82
2022/04/20 02:47:00;;;;;;;4.07;3.65;;;;;;;;;;5008520;28;20378;-83
2022/04/20 02:49:26;;;;;;;5.53;3.72;;;;;;;;;;5025616;28;20050;-82
2022/04/20 02:51:52;;;;;;;4.50;3.90;;;;;;;;;;5004622;28;20038;-83
2022/04/20 02:54:18;;;;;;;5.55;3.80;;;;;;;;;;5021132;28;20040;-81
2022/04/20 02:56:44;;;;;;;5.03;4.25;;;;;;;;;;5021630;28;20072;-83
2022/04/20 02:59:10;;;;;;;4.20;3.80;;;;;;;;;;5006785;28;20049;-83
2022/04/20 03:01:36;;;;;;;4.43;3.83;;;;;;;;;;5006674;28;20045;-82
2022/04/20 03:04:05;;;;;;;6.82;4.20;;;;;;;;;;5007107;28;20049;-83
2022/04/20 03:06:31;;;;;;;4.22;3.60;;;;;;;;;;5025169;28;20048;-83
2022/04/20 03:08:57;;;;;;;4.75;4.00;;;;;;;;;;5005364;28;20485;-83
2022/04/20 03:11:24;;;;;;;4.93;4.05;;;;;;;;;;5027278;28;20041;-82
2022/04/20 03:13:50;;;;;;;6.45;4.00;;;;;;;;;;5020967;28;20076;-83
2022/04/20 03:16:17;;;;;;;6.35;4.00;;;;;;;;;;5004986;28;20394;-82
2022/04/20 03:18:43;;;;;;;5.72;4.53;;;;;;;;;;5004261;28;20045;-82
2022/04/20 03:21:09;;;;;;;5.78;4.18;;;;;;;;;;5027075;28;20048;-82
2022/04/20 03:23:35;;;;;;;5.07;4.10;;;;;;;;;;5007496;28;20496;-82
2022/04/20 03:26:01;;;;;;;4.82;4.25;;;;;;;;;;5025717;28;20080;-82
2022/04/20 03:28:27;;;;;;;5.05;4.00;;;;;;;;;;5027018;28;20099;-82
2022/04/20 03:30:53;;;;;;;4.28;3.88;;;;;;;;;;5007499;28;20050;-82
2022/04/20 03:33:19;;;;;;;4.28;3.88;;;;;;;;;;5022854;28;20037;-82
2022/04/20 03:35:45;;;;;;;4.90;4.40;;;;;;;;;;5008579;28;20072;-82
2022/04/20 03:38:12;;;;;;;5.68;3.90;;;;;;;;;;5019330;28;20042;-82
2022/04/20 03:40:38;;;;;;;5.10;4.35;;;;;;;;;;5026571;28;20052;-82
2022/04/20 03:43:04;;;;;;;5.57;4.35;;;;;;;;;;5009436;28;20041;-83
2022/04/20 03:45:30;;;;;;;5.10;4.43;;;;;;;;;;5005936;28;20131;-83
2022/04/20 03:47:56;;;;;;;6.03;4.35;;;;;;;;;;5011134;28;20037;-82
2022/04/20 03:50:22;;;;;;;4.75;4.07;;;;;;;;;;5024346;28;20050;-82
2022/04/20 03:52:48;;;;;;;4.68;4.18;;;;;;;;;;5009905;28;20057;-82
2022/04/20 03:55:14;;;;;;;4.93;4.03;;;;;;;;;;5006263;28;20049;-83
2022/04/20 03:57:40;;;;;;;4.70;4.20;;;;;;;;;;5024862;28;20049;-83
2022/04/20 04:00:06;;;;;;;6.57;4.32;;;;;;;;;;5002548;28;20045;-82
2022/04/20 04:02:32;;;;;;;5.47;4.45;;;;;;;;;;5015717;28;20194;-83
2022/04/20 04:04:58;;;;;;;5.68;4.18;;;;;;;;;;5024191;28;20396;-83
2022/04/20 04:07:24;;;;;;;5.38;4.07;;;;;;;;;;5009337;28;20076;-82
2022/04/20 04:09:50;;;;;;;6.40;4.40;;;;;;;;;;5004303;28;20494;-82
2022/04/20 04:12:22;;;;;;;4.63;4.05;;;;;;;;;;5006994;28;20457;-82
2022/04/20 04:14:48;;;;;;;6.32;4.22;;;;;;;;;;5010606;28;20562;-83
2022/04/20 04:17:14;;;;;;;6.57;4.50;;;;;;;;;;5027929;28;20037;-82
2022/04/20 04:19:40;;;;;;;7.88;4.30;;;;;;;;;;5005251;28;20056;-82
2022/04/20 04:22:07;;;;;;;7.40;4.53;;;;;;;;;;5008138;28;20056;-82
2022/04/20 04:24:36;;;;;;;6.90;4.28;;;;;;;;;;5023564;28;20144;-83
2022/04/20 04:27:06;;;;;;;5.63;4.43;;;;;;;;;;5022362;28;20046;-81
2022/04/20 04:29:32;;;;;;;7.53;4.50;;;;;;;;;;5003651;28;20547;-82
2022/04/20 04:31:59;;;;;;;5.25;4.20;;;;;;;;;;5000457;28;20038;-82
2022/04/20 04:34:25;;;;;;;7.00;4.25;;;;;;;;;;5004181;28;20042;-82
2022/04/20 04:36:54;;;;;;;6.07;4.55;;;;;;;;;;5006118;28;20056;-82
2022/04/20 04:39:21;;;;;;;7.00;4.72;;;;;;;;;;5025265;28;20072;-82
2022/04/20 04:41:48;;;;;;;6.00;4.35;;;;;;;;;;5007640;28;20477;-82
2022/04/20 04:44:14;;;;;;;6.03;5.13;;;;;;;;;;5025210;28;20087;-82
2022/04/20 04:49:25;;;;;;;4.90;4.38;;;;;;;;;;5024212;28;20037;-81
2022/04/20 04:51:53;;;;;;;7.53;4.38;;;;;;;;;;5022075;28;20404;-83
2022/04/20 04:54:22;;;;;;;5.57;4.38;;;;;;;;;;5022857;28;20117;-82
2022/04/20 04:56:49;;;;;;;5.10;4.18;;;;;;;;;;5002375;28;20050;-82
2022/04/20 04:59:15;;;;;;;5.50;4.18;;;;;;;;;;5023054;28;20072;-82
2022/04/20 05:01:41;;;;;;;5.10;4.60;;;;;;;;;;5018780;28;20045;-82
2022/04/20 05:04:07;;;;;;;5.43;4.72;;;;;;;;;;5021547;28;20037;-82
2022/04/20 05:06:33;;;;;;;4.20;3.80;;;;;;;;;;5008385;28;20480;-81
2022/04/20 05:08:59;;;;;;;5.38;4.38;;;;;;;;;;5005365;28;20149;-82
2022/04/20 05:11:25;;;;;;;6.38;4.63;;;;;;;;;;5019079;28;20575;-82
2022/04/20 05:13:51;;;;;;;5.45;4.45;;;;;;;;;;5007733;28;20068;-82
2022/04/20 05:16:17;;;;;;;9.43;8.02;;;;;;;;;;5006383;28;20442;-82
2022/04/20 05:18:46;;;;;;;7.15;6.00;;;;;;;;;;5004279;28;20115;-81
2022/04/20 05:21:12;;;;;;;5.22;4.72;;;;;;;;;;5004924;28;20041;-82
2022/04/20 05:23:38;;;;;;;6.65;4.80;;;;;;;;;;5004215;28;20057;-81
2022/04/20 05:26:07;;;;;;;6.65;4.80;;;;;;;;;;5005106;28;20107;-81
2022/04/20 05:28:33;;;;;;;4.95;4.22;;;;;;;;;;5004461;28;20104;-82
2022/04/20 05:30:59;;;;;;;5.78;4.47;;;;;;;;;;5005500;28;20041;-82
2022/04/20 05:33:25;;;;;;;5.30;4.40;;;;;;;;;;5005435;28;20038;-84
2022/04/20 05:35:51;;;;;;;6.38;4.70;;;;;;;;;;5004786;28;20547;-82
2022/04/20 05:43:46;;;;;;;5.32;4.50;;;;;;;;;;5022312;28;20124;-82
2022/04/20 05:46:16;;;;;;;6.25;5.15;;;;;;;;;;5005896;28;20068;-82
2022/04/20 05:48:45;;;;;;;5.20;4.60;;;;;;;;;;5024720;28;20401;-81
2022/04/20 05:51:14;;;;;;;4.90;3.92;;;;;;;;;;5026574;28;20037;-82
2022/04/20 05:53:40;;;;;;;6.53;4.50;;;;;;;;;;5011350;28;20057;-83
2022/04/20 05:56:06;;;;;;;5.20;4.47;;;;;;;;;;5012349;28;20057;-82
2022/04/20 05:58:32;;;;;;;5.88;4.68;;;;;;;;;;5026701;28;20512;-82
2022/04/20 06:00:58;;;;;;;6.13;4.60;;;;;;;;;;5025227;28;20157;-82
2022/04/20 06:03:24;;;;;;;5.07;4.57;;;;;;;;;;5026469;28;20033;-82
2022/04/20 06:05:49;;;;;;;5.15;4.57;;;;;;;;;;5026578;28;20056;-82
2022/04/20 06:08:15;;;;;;;6.45;5.03;;;;;;;;;;5010541;28;20096;-81
2022/04/20 06:10:44;;;;;;;5.93;4.75;;;;;;;;;;5026885;28;20049;-82
2022/04/20 06:13:10;;;;;;;6.35;4.60;;;;;;;;;;5020002;28;20049;-82
2022/04/20 06:15:39;;;;;;;6.55;4.82;;;;;;;;;;5028057;28;20053;-82
2022/04/20 06:18:05;;;;;;;5.57;4.20;;;;;;;;;;5028379;28;20051;-82
2022/04/20 06:20:31;;;;;;;5.03;4.30;;;;;;;;;;5012215;28;20049;-82
2022/04/20 06:22:57;;;;;;;6.28;4.80;;;;;;;;;;5009813;28;20690;-83
2022/04/20 06:25:23;;;;;;;7.10;5.00;;;;;;;;;;5026157;28;20046;-82
2022/04/20 06:27:49;;;;;;;6.25;4.68;;;;;;;;;;5010420;28;20049;-82
2022/04/20 06:30:15;;;;;;;5.15;4.50;;;;;;;;;;5027620;28;20051;-82
2022/04/20 06:32:44;;;;;;;5.25;4.63;;;;;;;;;;5002391;28;20046;-83
2022/04/20 06:35:10;;;;;;;5.15;4.65;;;;;;;;;;5010199;28;20432;-82
2022/04/20 06:37:36;;;;;;;5.88;4.80;;;;;;;;;;5011015;28;20405;-83
2022/04/20 06:40:02;;;;;;;5.10;4.60;;;;;;;;;;5008164;28;20052;-84
2022/04/20 06:42:28;;;;;;;4.65;4.25;;;;;;;;;;5013439;28;20037;-84
2022/04/20 06:44:57;;;;;;;6.78;4.50;;;;;;;;;;5012338;28;20045;-85
2022/04/20 06:47:23;;;;;;;5.80;4.65;;;;;;;;;;5024413;28;20049;-83
2022/04/20 06:49:49;;;;;;;5.85;4.50;;;;;;;;;;5011888;28;20095;-82
2022/04/20 07:00:29;;;;;;;4.50;4.10;;;;;;;;;;5010784;28;20064;-83
2022/04/20 07:02:59;;;;;;;5.13;4.60;;;;;;;;;;5010142;28;20495;-83
2022/04/20 07:05:25;;;;;;;5.53;4.25;;;;;;;;;;5011080;28;20095;-82
2022/04/20 07:07:51;;;;;;;6.03;4.32;;;;;;;;;;5008149;28;20045;-81
2022/04/20 07:10:20;;;;;;;5.95;4.38;;;;;;;;;;5009504;28;20061;-82
2022/04/20 07:12:46;;;;;;;6.03;4.57;;;;;;;;;;5023453;28;20124;-83
2022/04/20 07:15:13;;;;;;;4.85;4.22;;;;;;;;;;5004177;28;20049;-83
2022/04/20 07:17:38;;;;;;;7.30;4.22;;;;;;;;;;5025121;28;20041;-83
2022/04/20 07:20:06;;;;;;;7.25;3.92;;;;;;;;;;5023267;28;20103;-83
2022/04/20 07:22:33;;;;;;;4.45;3.80;;;;;;;;;;5024470;28;20487;-82
2022/04/20 07:25:00;;;;;;;4.60;4.20;;;;;;;;;;5005185;28;20087;-83
2022/04/20 07:27:26;;;;;;;5.95;4.53;;;;;;;;;;5005865;28;20054;-82
2022/04/20 07:29:52;;;;;;;5.68;4.30;;;;;;;;;;5002379;28;20056;-83
2022/04/20 07:32:18;;;;;;;5.38;3.92;;;;;;;;;;5003250;28;20054;-82
2022/04/20 07:34:44;;;;;;;4.78;4.20;;;;;;;;;;5005606;28;20536;-82
2022/04/20 07:37:10;;;;;;;5.78;4.28;;;;;;;;;;5007122;28;20053;-83
2022/04/20 07:39:36;;;;;;;4.20;3.80;;;;;;;;;;5008153;28;20049;-84
2022/04/20 07:42:03;;;;;;;4.78;4.18;;;;;;;;;;5019431;28;20398;-83
2022/04/20 07:44:29;;;;;;;4.70;3.70;;;;;;;;;;5005041;28;20055;-83
2022/04/20 07:46:55;;;;;;;4.35;3.78;;;;;;;;;;5000428;28;20569;-83
2022/04/20 07:52:05;;;;;;;4.80;3.80;;;;;;;;;;5016799;28;20054;-80
2022/04/20 07:54:31;;;;;;;4.88;3.85;;;;;;;;;;5024236;28;20100;-80
2022/04/20 07:56:57;;;;;;;3.88;3.45;;;;;;;;;;5002059;28;20607;-82
2022/04/20 07:59:23;;;;;;;4.18;3.25;;;;;;;;;;5007100;28;20041;-80
2022/04/20 08:01:49;;;;;;;3.65;3.28;;;;;;;;;;5004394;28;20048;-81
2022/04/20 08:04:16;;;;;;;3.78;3.10;;;;;;;;;;5004436;28;20049;-81
2022/04/20 08:06:44;;;;;;;4.00;3.40;;;;;;;;;;5003381;28;20046;-80
2022/04/20 08:09:10;;;;;;;3.67;3.35;;;;;;;;;;5020133;28;20087;-80
2022/04/20 08:11:36;;;;;;;3.75;3.42;;;;;;;;;;5014172;28;20057;-79
2022/04/20 08:14:11;;;;;;;3.90;3.60;;;;;;;;;;5006554;28;20045;-80
2022/04/20 08:16:38;;;;;;;5.43;3.55;;;;;;;;;;5000680;28;20053;-80
2022/04/20 08:19:06;;;;;;;3.72;3.33;;;;;;;;;;5017107;28;20034;-82
2022/04/20 08:21:32;;;;;;;4.00;3.33;;;;;;;;;;5004979;28;20739;-80
2022/04/20 08:23:58;;;;;;;5.38;3.45;;;;;;;;;;5004753;28;20041;-81
2022/04/20 08:26:25;;;;;;;4.53;3.60;;;;;;;;;;5017420;28;20046;-81
2022/04/20 08:28:51;;;;;;;4.65;3.58;;;;;;;;;;5006079;28;20042;-77
2022/04/20 08:31:18;;;;;;;6.18;4.00;;;;;;;;;;5009480;28;20072;-80
2022/04/20 08:33:44;;;;;;;3.88;3.15;;;;;;;;;;5004542;28;20041;-82
2022/04/20 08:36:13;;;;;;;7.93;4.15;;;;;;;;;;5022807;28;20037;-79
2022/04/20 08:38:40;;;;;;;4.55;3.42;;;;;;;;;;5014762;28;20083;-82
2022/04/20 08:41:06;;;;;;;3.78;3.25;;;;;;;;;;5026762;28;20046;-81
2022/04/20 08:43:32;;;;;;;4.07;3.67;;;;;;;;;;5011117;28;20091;-82
2022/04/20 08:46:02;;;;;;;5.90;3.40;;;;;;;;;;5010569;28;20622;-82
2022/04/20 08:48:29;;;;;;;3.53;3.22;;;;;;;;;;5027858;28;20045;-81
2022/04/20 08:50:55;;;;;;;3.65;3.30;;;;;;;;;;5027576;28;20153;-81
2022/04/20 08:53:22;;;;;;;3.53;3.05;;;;;;;;;;5008308;28;20044;-81
2022/04/20 08:57:15;;;;;;;7.82;3.30;;;;;;;;;;5009985;28;20073;-81
2022/04/20 08:58:34;;;;;;;3.50;2.97;;;;;;;;;;5027743;28;20049;-81
2022/04/20 09:01:00;;;;;;;3.38;3.00;;;;;;;;;;5003069;28;20045;-81
2022/04/20 09:03:27;;;;;;;4.68;2.97;;;;;;;;;;5008677;28;20042;-81
2022/04/20 09:05:56;;;;;;;3.25;2.55;;;;;;;;;;5009879;28;20459;-82
2022/04/20 09:08:25;;;;;;;2.97;2.47;;;;;;;;;;5012046;28;20037;-81
2022/04/20 09:10:51;;;;;;;6.93;2.50;;;;;;;;;;5027555;28;20073;-82
2022/04/20 09:13:17;;;;;;;5.80;2.22;;;;;;;;;;5006118;28;20046;-81
2022/04/20 09:15:44;;;;;;;2.65;1.95;;;;;;;;;;5006552;28;20050;-81
2022/04/20 09:18:11;;;;;;;3.53;2.28;;;;;;;;;;5012668;28;20073;-81
2022/04/20 09:20:38;;;;;;;4.72;2.50;;;;;;;;;;5029633;28;20042;-81
2022/04/20 09:23:04;;;;;;;2.67;2.20;;;;;;;;;;5026171;28;20041;-82
2022/04/20 09:25:31;;;;;;;3.05;2.20;;;;;;;;;;5010667;28;20081;-81
2022/04/20 09:27:57;;;;;;;3.15;2.17;;;;;;;;;;5023878;28;20099;-83
2022/04/20 09:30:23;;;;;;;3.42;2.38;;;;;;;;;;5006725;28;20559;-81
2022/04/20 09:32:49;;;;;;;2.20;2.10;;;;;;;;;;5021101;28;20045;-82
2022/04/20 09:35:18;;;;;;;2.58;2.38;;;;;;;;;;5012221;28;20045;-83
2022/04/20 09:37:44;;;;;;;2.60;2.40;;;;;;;;;;5032019;28;20056;-82
2022/04/20 09:40:11;;;;;;;2.60;2.40;;;;;;;;;;5012714;28;20543;-82
2022/04/20 09:42:39;;;;;;;2.63;2.30;;;;;;;;;;5023682;28;20092;-81
2022/04/20 09:45:06;;;;;;;2.03;1.88;;;;;;;;;;5024958;28;20385;-82
2022/04/20 09:50:25;;;;;;;3.13;2.20;;;;;;;;;;5007315;28;20160;-82
2022/04/20 09:52:55;;;;;;;2.30;2.20;;;;;;;;;;5001004;28;20489;-83
2022/04/20 09:55:29;;;;;;;2.97;2.38;;;;;;;;;;5022922;28;20133;-82
2022/04/20 09:57:55;;;;;;;;;;;;;;;;;;5009725;28;20077;-82
2022/04/20 10:00:23;;;;;;;2.00;1.90;;;;;;;;;;5006724;28;19957;-83
2022/04/20 10:02:50;;;;;;;2.80;2.10;;;;;;;;;;5012754;28;20052;-83
2022/04/20 10:05:17;;;;;;;3.28;2.33;;;;;;;;;;5009880;28;20045;-83
2022/04/20 10:07:43;;;;;;;3.00;2.33;;;;;;;;;;5007725;28;20440;-82
2022/04/20 10:10:09;;;;;;;2.55;2.30;;;;;;;;;;5020959;28;20127;-83
2022/04/20 10:12:37;;;;;;;2.50;2.30;;;;;;;;;;5028526;28;20049;-82
2022/04/20 10:17:51;;;;;;;3.47;2.33;;;;;;;;;;5025458;28;20045;-82
2022/04/20 10:20:17;;;;;;;2.78;2.28;;;;;;;;;;5026698;28;20424;-82
2022/04/20 10:22:43;;;;;;;2.40;2.20;;;;;;;;;;5010666;28;20052;-83
2022/04/20 10:25:10;;;;;;;2.20;2.10;;;;;;;;;;5002066;28;20049;-82
2022/04/20 10:27:45;;;;;;;2.55;2.35;;;;;;;;;;5007538;28;20057;-81
2022/04/20 10:30:16;;;;;;;2.60;2.40;;;;;;;;;;5024479;28;20488;-81
2022/04/20 10:32:49;;;;;;;4.25;2.40;;;;;;;;;;5006323;28;20053;-81
2022/04/20 10:35:35;;;;;;;2.45;2.25;;;;;;;;;;5019643;28;20037;-81
2022/04/20 10:38:11;;;;;;;2.40;2.20;;;;;;;;;;4999742;28;20593;-81
2022/04/20 10:40:59;;;;;;;1.95;1.85;;;;;;;;;;5011880;28;20511;-82
2022/04/20 10:43:26;;;;;;;2.95;2.00;;;;;;;;;;5001580;28;20121;-81
2022/04/20 10:46:11;;;;;;;2.30;1.92;;;;;;;;;;4998685;28;20037;-80
2022/04/20 10:48:43;;;;;;;2.42;2.22;;;;;;;;;;5029428;28;20045;-81
2022/04/20 10:51:14;;;;;;;2.28;2.17;;;;;;;;;;5010750;28;20059;-81
2022/04/20 10:53:42;;;;;;;2.05;1.95;;;;;;;;;;5027737;28;20053;-86
2022/04/20 10:56:08;;;;;;;2.30;2.10;;;;;;;;;;5007363;28;20489;-84
2022/04/20 10:58:35;;;;;;;2.75;2.55;;;;;;;;;;5011328;28;20075;-84
2022/04/20 11:01:07;;;;;;;2.17;2.08;;;;;;;;;;5009432;28;20057;-85
2022/04/20 11:04:05;;;;;;;2.58;1.85;;;;;;;;;;5009291;28;20061;-85
2022/04/20 11:06:50;;;;;;;2.30;2.10;;;;;;;;;;4991933;28;20083;-85
2022/04/20 11:09:49;;;;;;;2.40;2.20;;;;;;;;;;5026510;28;20381;-85
2022/04/20 11:21:11;;;;;;;2.17;1.98;;;;;;;;;;5014895;28;20046;-81
2022/04/20 11:23:53;;;;;;;3.88;2.10;;;;;;;;;;5026081;28;20049;-80
2022/04/20 11:26:39;;;;;;;2.20;2.00;;;;;;;;;;5027743;28;20102;-80
2022/04/20 11:29:15;;;;;;;2.15;1.95;;;;;;;;;;5027821;28;20049;-80
2022/04/20 11:31:42;;;;;;;5.53;2.10;;;;;;;;;;5003453;28;20040;-80
2022/04/20 11:34:14;;;;;;;3.58;2.03;;;;;;;;;;5007606;28;20049;-80
2022/04/20 11:36:43;;;;;;;2.85;1.90;;;;;;;;;;5024536;28;20053;-80
2022/04/20 11:39:12;;;;;;;2.13;1.92;;;;;;;;;;5027354;28;20128;-80
2022/04/20 11:41:39;;;;;;;2.40;2.20;;;;;;;;;;5018047;28;20219;-82
2022/04/20 11:44:19;;;;;;;2.28;2.08;;;;;;;;;;5022840;28;20045;-84
2022/04/20 11:46:49;;;;;;;2.20;1.80;;;;;;;;;;5014701;28;20128;-82
2022/04/20 11:49:15;;;;;;;2.25;2.08;;;;;;;;;;5005924;28;20045;-81
2022/04/20 11:51:45;;;;;;;3.10;1.80;;;;;;;;;;5027352;28;20128;-83
2022/04/20 11:54:11;;;;;;;3.45;2.00;;;;;;;;;;5024993;28;20068;-82
2022/04/20 11:56:40;;;;;;;2.00;1.90;;;;;;;;;;5004596;28;20123;-83
2022/04/20 11:59:08;;;;;;;2.15;1.92;;;;;;;;;;5022647;28;20053;-83
2022/04/20 12:01:35;;;;;;;4.03;2.20;;;;;;;;;;5010086;28;20064;-82
2022/04/20 12:04:21;;;;;;;1.95;1.75;;;;;;;;;;5024911;28;20050;-83
2022/04/20 12:06:49;;;;;;;2.00;1.90;;;;;;;;;;5024027;28;20071;-81
2022/04/20 12:09:15;;;;;;;2.45;2.00;;;;;;;;;;5026193;28;20033;-81
2022/04/20 12:11:42;;;;;;;2.13;2.00;;;;;;;;;;5011093;28;20501;-80
2022/04/20 12:14:10;;;;;;;5.15;2.20;;;;;;;;;;5009687;28;20045;-81
2022/04/20 12:16:36;;;;;;;2.55;2.15;;;;;;;;;;5030797;28;20046;-81
2022/04/20 12:19:03;;;;;;;2.00;1.90;;;;;;;;;;5010878;28;20120;-82
2022/04/20 12:21:36;;;;;;;3.92;2.10;;;;;;;;;;5010368;28;20046;-81
2022/04/20 12:24:03;;;;;;;4.38;1.95;;;;;;;;;;5021728;28;20117;-81
2022/04/20 12:26:29;;;;;;;3.10;2.00;;;;;;;;;;5004763;28;20137;-80
2022/04/20 12:28:59;;;;;;;3.92;1.95;;;;;;;;;;5024542;28;20431;-81
2022/04/20 12:31:25;;;;;;;3.08;2.10;;;;;;;;;;5014898;28;20052;-81
2022/04/20 12:34:01;;;;;;;2.13;2.00;;;;;;;;;;5009576;28;20045;-81
2022/04/20 12:36:27;;;;;;;4.00;2.15;;;;;;;;;;5008788;28;20539;-80
2022/04/20 12:38:53;;;;;;;3.03;1.90;;;;;;;;;;5008064;28;20436;-80
2022/04/20 12:41:41;;;;;;;2.15;1.90;;;;;;;;;;5030061;28;20125;-80
2022/04/20 12:44:26;;;;;;;2.50;2.30;;;;;;;;;;5027563;28;20490;-80
2022/04/20 12:46:52;;;;;;;2.08;1.92;;;;;;;;;;5032227;28;20057;-81
2022/04/20 12:49:25;;;;;;;2.22;2.03;;;;;;;;;;5031590;28;20073;-81
2022/04/20 12:51:51;;;;;;;4.30;2.40;;;;;;;;;;5008054;28;20049;-80
2022/04/20 12:54:24;;;;;;;4.20;3.80;;;;;;;;;;5007606;28;20499;-81
2022/04/20 13:02:20;;;;;;;4.38;3.22;;;;;;;;;;5027196;28;20137;-82
2022/04/20 13:04:49;;;;;;;3.20;2.90;;;;;;;;;;5027293;28;20052;-82
2022/04/20 13:07:15;;;;;;;4.28;3.47;;;;;;;;;;5011781;28;20132;-80
2022/04/20 13:09:41;;;;;;;4.47;3.00;;;;;;;;;;5006748;28;20072;-82
2022/04/20 13:12:08;;;;;;;4.38;3.15;;;;;;;;;;5028567;28;20048;-81
2022/04/20 13:14:35;;;;;;;7.95;3.42;;;;;;;;;;5026131;28;20095;-82
2022/04/20 13:17:01;;;;;;;5.25;3.47;;;;;;;;;;5013745;28;20092;-82
2022/04/20 13:19:27;;;;;;;3.85;3.45;;;;;;;;;;5028757;28;20041;-82
2022/04/20 13:21:53;;;;;;;3.53;3.15;;;;;;;;;;5009196;28;20083;-82
2022/04/20 13:29:49;;;;;;;6.45;3.25;;;;;;;;;;5025942;28;20085;-82
2022/04/20 13:32:15;;;;;;;5.22;3.40;;;;;;;;;;5013548;28;20100;-82
2022/04/20 13:34:41;;;;;;;3.53;3.22;;;;;;;;;;5010627;28;20103;-82
2022/04/20 13:37:07;;;;;;;4.20;3.15;;;;;;;;;;5030933;28;20037;-82
2022/04/20 13:39:33;;;;;;;4.10;3.42;;;;;;;;;;5011340;28;20064;-82
2022/04/20 13:41:59;;;;;;;4.80;3.55;;;;;;;;;;5029786;28;20045;-83
2022/04/20 13:44:25;;;;;;;3.92;3.17;;;;;;;;;;5012621;28;20420;-82
2022/04/20 13:46:51;;;;;;;4.05;3.40;;;;;;;;;;5028048;28;20049;-82
2022/04/20 13:49:17;;;;;;;4.22;3.50;;;;;;;;;;5026968;28;20034;-82
2022/04/20 13:51:43;;;;;;;4.95;3.38;;;;;;;;;;5008804;28;20572;-82
2022/04/20 13:54:09;;;;;;;3.53;2.88;;;;;;;;;;5030382;28;20516;-81
2022/04/20 13:56:35;;;;;;;6.07;3.47;;;;;;;;;;5025096;28;20420;-82
2022/04/20 13:59:04;;;;;;;3.00;2.80;;;;;;;;;;5011027;28;20048;-81
2022/04/20 14:01:30;;;;;;;3.13;2.83;;;;;;;;;;5024525;28;20504;-82
2022/04/20 14:03:56;;;;;;;5.15;2.90;;;;;;;;;;5013511;28;20061;-83
2022/04/20 14:06:22;;;;;;;3.58;3.17;;;;;;;;;;5010762;28;20445;-81
2022/04/20 14:08:48;;;;;;;4.32;3.00;;;;;;;;;;5029407;28;20063;-82
2022/04/20 14:11:14;;;;;;;3.15;2.95;;;;;;;;;;5027162;28;20042;-82
2022/04/20 14:13:41;;;;;;;3.70;2.90;;;;;;;;;;5012906;28;20497;-82
2022/04/20 14:16:07;;;;;;;3.03;2.72;;;;;;;;;;5010129;28;20120;-82
2022/04/20 14:18:33;;;;;;;5.10;2.90;;;;;;;;;;5030738;28;20045;-82
2022/04/20 14:21:00;;;;;;;6.88;2.83;;;;;;;;;;5013031;28;20053;-82
2022/04/20 14:23:26;;;;;;;4.18;2.72;;;;;;;;;;5029559;28;20053;-82
2022/04/20 14:34:08;;;;;;;4.68;2.30;;;;;;;;;;5006820;28;20053;-80
2022/04/20 14:36:35;;;;;;;3.08;2.60;;;;;;;;;;5007318;28;20053;-79
2022/04/20 14:39:02;;;;;;;3.05;2.53;;;;;;;;;;5029013;28;20055;-80
2022/04/20 14:41:28;;;;;;;2.30;2.10;;;;;;;;;;5025395;28;20037;-79
2022/04/20 14:43:55;;;;;;;5.32;2.38;;;;;;;;;;5007672;28;20560;-81
2022/04/20 14:46:21;;;;;;;5.18;2.20;;;;;;;;;;5023317;28;20400;-81
2022/04/20 14:48:47;;;;;;;4.13;2.05;;;;;;;;;;5010621;28;20052;-82
2022/04/20 14:51:14;;;;;;;3.33;2.03;;;;;;;;;;5010916;28;20045;-82
2022/04/20 14:53:40;;;;;;;3.03;2.25;;;;;;;;;;5027310;28;20053;-83
2022/04/20 14:56:06;;;;;;;4.47;1.98;;;;;;;;;;5024867;28;20050;-82
2022/04/20 14:58:32;;;;;;;1.83;1.73;;;;;;;;;;5028998;28;20104;-82
2022/04/20 15:01:04;;;;;;;5.45;1.90;;;;;;;;;;5028581;28;20500;-82
2022/04/20 15:03:30;;;;;;;4.65;2.10;;;;;;;;;;5005847;28;20057;-82
2022/04/20 15:05:56;;;;;;;3.38;1.90;;;;;;;;;;5028112;28;20045;-82
2022/04/20 15:08:22;;;;;;;3.20;1.90;;;;;;;;;;5011742;28;20041;-81
2022/04/20 15:10:50;;;;;;;2.78;1.88;;;;;;;;;;5012922;28;20366;-81
2022/04/20 15:13:16;;;;;;;2.53;1.77;;;;;;;;;;5025873;28;20128;-76
2022/04/20 15:15:43;;;;;;;2.20;2.00;;;;;;;;;;5026001;28;20042;-82
2022/04/20 15:18:10;;;;;;;2.92;2.10;;;;;;;;;;5021879;28;20030;-81
2022/04/20 15:20:37;;;;;;;4.13;2.33;;;;;;;;;;5029408;28;20504;-80
2022/04/20 15:23:03;;;;;;;3.60;2.20;;;;;;;;;;5005690;28;20049;-82
2022/04/20 15:25:33;;;;;;;3.88;2.10;;;;;;;;;;5009127;28;21343;-82
2022/04/20 15:28:01;;;;;;;2.67;2.40;;;;;;;;;;5024090;28;20279;-81
2022/04/20 15:30:33;;;;;;;2.30;2.10;;;;;;;;;;5028117;28;20048;-82
2022/04/20 15:32:59;;;;;;;5.70;2.50;;;;;;;;;;5028605;28;20459;-82
2022/04/20 15:35:25;;;;;;;3.15;2.50;;;;;;;;;;5027595;28;20180;-83
2022/04/20 15:37:51;;;;;;;6.30;2.35;;;;;;;;;;5008798;28;20262;-82